Aviation Digital Data Service (ADDS)

Output produced by TAFs form (2210 UTC 22 May 2015)
found at http://aviationweather.gov/adds/tafs/
 
KMTJ 222017Z 2220/2318 21012G20KT P6SM VCTS SCT080CB OVC110 
     TEMPO 2220/2224 -SHRA SCT040 BKN060 
     FM230200 17008KT P6SM VCSH SCT070 OVC100 
     FM230400 15007KT P6SM VCSH BKN100 
     FM231400 VRB03KT P6SM SCT100